Time;durP1;ratioP1;P1;durP2;ratioP2;P2;SDS_P1;SDS_P2;PMS_P1;PMS_P2;Temp;Humidity;BMP_temperature;BMP_pressure;BME280_temperature;BME280_humidity;BME280_pressure;Samples;Min_cycle;Max_cycle;Signal;HPM_P1;HPM_P2
2023/03/16 00:01:06;;;;;;;58.78;53.22;;;;;;;7.17;100.00;100093.50;5049999;28;20092;-80
2023/03/16 00:03:32;;;;;;;74.07;67.35;;;;;;;7.06;100.00;100094.06;5056866;28;20060;-80
2023/03/16 00:06:00;;;;;;;64.15;58.00;;;;;;;7.14;100.00;100093.91;5060616;28;20044;-80
2023/03/16 00:08:27;;;;;;;68.88;61.90;;;;;;;7.00;100.00;100089.59;5060592;28;20044;-81
2023/03/16 00:10:54;;;;;;;64.47;55.80;;;;;;;7.01;100.00;100099.13;5060590;28;20045;-81
2023/03/16 00:13:23;;;;;;;62.25;54.30;;;;;;;6.97;100.00;100093.44;5050975;28;20049;-81
2023/03/16 00:15:51;;;;;;;63.85;57.03;;;;;;;6.91;100.00;100088.94;5057719;28;20042;-81
2023/03/16 00:18:18;;;;;;;66.75;51.72;;;;;;;6.78;100.00;100094.97;5058202;28;20045;-81
2023/03/16 00:20:44;;;;;;;62.72;52.30;;;;;;;6.80;100.00;100100.84;5056770;28;20052;-81
2023/03/16 00:23:13;;;;;;;71.25;57.03;;;;;;;6.85;100.00;100103.72;5060176;28;20079;-81
2023/03/16 00:25:40;;;;;;;72.30;58.20;;;;;;;6.69;100.00;100098.78;5056820;28;20114;-81
2023/03/16 00:28:07;;;;;;;73.75;65.82;;;;;;;6.77;100.00;100111.81;5057186;28;20112;-80
2023/03/16 00:30:34;;;;;;;86.43;77.25;;;;;;;6.81;100.00;100122.81;5050669;28;20079;-81
2023/03/16 00:33:00;;;;;;;86.32;76.95;;;;;;;6.72;100.00;100122.16;5057351;28;20075;-80
2023/03/16 00:35:27;;;;;;;103.05;77.05;;;;;;;6.78;100.00;100120.56;5061325;28;20052;-81
2023/03/16 00:37:56;;;;;;;85.15;71.45;;;;;;;6.73;100.00;100125.59;5055868;28;20045;-81
2023/03/16 00:40:24;;;;;;;128.95;116.93;;;;;;;6.74;100.00;100119.31;5056269;28;20122;-81
2023/03/16 00:42:51;;;;;;;112.50;100.88;;;;;;;6.72;100.00;100108.13;5055720;28;20110;-80
2023/03/16 00:45:17;;;;;;;131.57;119.28;;;;;;;6.58;100.00;100099.34;5053045;28;20131;-81
2023/03/16 00:47:44;;;;;;;128.57;116.57;;;;;;;6.70;100.00;100104.88;5058187;28;20099;-81
2023/03/16 00:50:11;;;;;;;103.25;92.47;;;;;;;6.84;100.00;100107.41;5051710;28;20062;-80
2023/03/16 00:52:38;;;;;;;115.97;103.78;;;;;;;6.76;100.00;100115.47;5054527;28;20049;-81
2023/03/16 00:55:05;;;;;;;112.72;101.53;;;;;;;6.69;100.00;100119.91;5056498;28;20045;-80
2023/03/16 00:57:34;;;;;;;130.82;118.45;;;;;;;6.65;100.00;100118.66;5056675;28;20049;-80
2023/03/16 01:00:07;;;;;;;119.63;108.53;;;;;;;6.68;100.00;100126.19;5057486;28;20075;-81
2023/03/16 01:02:35;;;;;;;100.05;88.93;;;;;;;6.69;100.00;100129.63;5050908;28;20053;-81
2023/03/16 01:05:04;;;;;;;104.53;93.30;;;;;;;6.68;100.00;100135.91;5057885;28;20113;-80
2023/03/16 01:07:31;;;;;;;95.90;85.63;;;;;;;6.66;100.00;100141.41;5047745;28;20053;-81
2023/03/16 01:09:58;;;;;;;110.97;99.05;;;;;;;6.71;100.00;100141.63;5055867;28;20037;-80
2023/03/16 01:12:25;;;;;;;100.15;89.18;;;;;;;6.68;100.00;100138.56;5054762;28;20045;-81
2023/03/16 01:14:54;;;;;;;111.03;87.65;;;;;;;6.77;100.00;100134.75;5058282;28;20053;-81
2023/03/16 01:17:21;;;;;;;102.65;91.25;;;;;;;6.87;100.00;100127.31;5056406;28;20041;-80
2023/03/16 01:19:48;;;;;;;112.80;100.47;;;;;;;6.77;100.00;100135.56;5055121;28;20053;-81
2023/03/16 01:22:17;;;;;;;98.45;68.63;;;;;;;6.86;100.00;100130.94;5052269;28;20053;-80
2023/03/16 01:24:45;;;;;;;92.47;67.75;;;;;;;6.82;100.00;100142.91;5055924;28;20049;-80
2023/03/16 01:27:13;;;;;;;94.55;74.70;;;;;;;6.79;100.00;100140.66;5060873;28;20049;-81
2023/03/16 01:29:42;;;;;;;100.55;71.97;;;;;;;6.86;100.00;100142.31;5057078;28;20061;-81
2023/03/16 01:32:10;;;;;;;99.88;76.38;;;;;;;6.86;100.00;100150.22;5058648;28;20052;-81
2023/03/16 01:34:37;;;;;;;94.90;63.67;;;;;;;6.71;100.00;100149.53;5051523;28;20056;-81
2023/03/16 01:37:04;;;;;;;153.07;137.75;;;;;;;6.78;100.00;100144.31;5057905;28;20041;-81
2023/03/16 01:39:31;;;;;;;167.18;151.77;;;;;;;6.82;100.00;100142.91;5056724;28;20053;-81
2023/03/16 01:41:58;;;;;;;155.13;139.73;;;;;;;6.71;100.00;100151.38;5060470;28;20076;-80
2023/03/16 01:44:29;;;;;;;146.30;132.02;;;;;;;6.65;100.00;100152.94;5061079;28;20540;-81
2023/03/16 01:46:56;;;;;;;132.48;118.22;;;;;;;6.61;100.00;100159.63;5058383;28;20041;-81
2023/03/16 01:49:26;;;;;;;135.73;121.78;;;;;;;6.58;100.00;100163.47;5054829;28;20109;-81
2023/03/16 01:51:57;;;;;;;139.43;125.05;;;;;;;6.69;100.00;100164.78;5060066;28;20057;-81
2023/03/16 01:54:28;;;;;;;159.68;143.68;;;;;;;6.61;100.00;100162.28;5057585;28;20049;-81
2023/03/16 01:57:04;;;;;;;155.10;139.30;;;;;;;6.57;100.00;100161.84;5053192;28;20045;-81
2023/03/16 01:59:35;;;;;;;141.57;125.55;;;;;;;6.50;100.00;100168.88;5060994;28;20071;-81
2023/03/16 02:02:02;;;;;;;144.43;123.50;;;;;;;6.51;100.00;100161.81;5056537;28;20053;-81
2023/03/16 02:04:41;;;;;;;132.95;118.65;;;;;;;6.83;100.00;100166.47;5063130;28;20108;-81
2023/03/16 02:07:09;;;;;;;155.27;139.52;;;;;;;6.71;100.00;100160.09;5057424;28;20056;-81
2023/03/16 02:09:37;;;;;;;136.95;121.90;;;;;;;6.68;100.00;100173.69;5057086;28;20057;-81
2023/03/16 02:12:04;;;;;;;132.63;118.63;;;;;;;6.73;100.00;100176.56;5057106;28;20603;-81
2023/03/16 02:14:31;;;;;;;136.90;120.63;;;;;;;6.66;100.00;100178.34;5061184;28;20049;-81
2023/03/16 02:16:58;;;;;;;141.27;126.40;;;;;;;6.59;100.00;100185.41;5055130;28;20469;-80
2023/03/16 02:19:36;;;;;;;144.93;129.13;;;;;;;6.66;100.00;100186.28;5060453;28;20054;-81
2023/03/16 02:22:06;;;;;;;161.55;143.90;;;;;;;6.62;100.00;100185.00;5055468;28;20037;-80
2023/03/16 02:24:33;;;;;;;154.77;138.20;;;;;;;6.60;100.00;100192.31;5053549;28;20572;-80
2023/03/16 02:27:04;;;;;;;127.40;86.15;;;;;;;6.56;100.00;100198.97;5054727;28;20071;-81
2023/03/16 02:30:07;;;;;;;112.22;77.72;;;;;;;6.64;100.00;100190.91;5058536;28;20071;-81
2023/03/16 02:32:36;;;;;;;113.95;74.85;;;;;;;6.57;100.00;100190.06;4977464;28;20439;-80
2023/03/16 02:35:03;;;;;;;109.30;84.78;;;;;;;6.65;100.00;100193.34;4978004;28;20058;-80
2023/03/16 02:37:32;;;;;;;109.63;78.85;;;;;;;6.52;100.00;100208.28;5011598;28;20053;-81
2023/03/16 02:39:59;;;;;;;124.20;80.07;;;;;;;6.67;100.00;100209.00;5058666;28;20049;-81
2023/03/16 02:42:28;;;;;;;111.35;72.95;;;;;;;6.79;100.00;100212.75;5061124;28;20082;-81
2023/03/16 02:44:57;;;;;;;116.00;78.07;;;;;;;6.77;100.00;100219.22;5055079;28;20088;-80
2023/03/16 02:47:33;;;;;;;117.10;85.90;;;;;;;6.81;100.00;100221.28;5057474;28;20049;-81
2023/03/16 02:50:01;;;;;;;111.65;82.15;;;;;;;6.73;100.00;100226.72;5051080;28;20053;-80
2023/03/16 02:52:28;;;;;;;117.32;85.47;;;;;;;6.75;100.00;100224.72;5057976;28;20113;-81
2023/03/16 02:54:54;;;;;;;117.22;75.53;;;;;;;6.64;100.00;100219.94;5055760;28;20083;-80
2023/03/16 02:57:21;;;;;;;113.15;77.38;;;;;;;6.54;100.00;100214.19;5054685;28;20072;-81
2023/03/16 02:59:48;;;;;;;113.28;75.15;;;;;;;6.55;100.00;100221.91;5051684;28;20087;-81
2023/03/16 03:02:14;;;;;;;113.18;78.13;;;;;;;6.80;100.00;100230.19;5050355;28;20107;-81
2023/03/16 03:04:45;;;;;;;108.25;73.88;;;;;;;6.85;100.00;100229.63;5051187;28;20433;-81
2023/03/16 03:07:13;;;;;;;111.07;82.25;;;;;;;6.82;100.00;100232.66;5050671;28;20045;-80
2023/03/16 03:09:40;;;;;;;110.40;73.57;;;;;;;6.78;100.00;100253.34;5060760;28;20079;-81
2023/03/16 03:12:08;;;;;;;112.15;80.35;;;;;;;6.84;100.00;100246.50;5056700;28;20057;-81
2023/03/16 03:14:37;;;;;;;123.20;83.85;;;;;;;6.95;100.00;100245.94;5055724;28;20053;-80
2023/03/16 03:17:04;;;;;;;107.65;73.03;;;;;;;6.84;100.00;100251.78;5058919;28;20434;-80
2023/03/16 03:19:32;;;;;;;113.65;74.78;;;;;;;6.92;100.00;100240.22;5056373;28;20052;-80
2023/03/16 03:22:03;;;;;;;116.30;84.22;;;;;;;7.00;100.00;100250.66;5052231;28;20072;-80
2023/03/16 03:24:30;;;;;;;110.70;72.47;;;;;;;6.93;100.00;100255.91;5056685;28;20056;-81
2023/03/16 03:26:57;;;;;;;109.28;71.20;;;;;;;6.97;100.00;100256.31;5057206;28;20056;-81
2023/03/16 03:29:24;;;;;;;111.93;77.35;;;;;;;6.89;100.00;100262.56;5053943;28;20046;-81
2023/03/16 03:31:51;;;;;;;110.47;76.07;;;;;;;6.93;100.00;100271.75;5054304;28;20052;-80
2023/03/16 03:34:17;;;;;;;110.85;80.10;;;;;;;6.89;100.00;100270.47;5051261;28;20043;-81
2023/03/16 03:36:44;;;;;;;111.28;77.75;;;;;;;6.94;100.00;100278.63;5062346;28;20048;-80
2023/03/16 03:39:12;;;;;;;112.18;76.93;;;;;;;6.99;100.00;100284.16;5056419;28;20053;-81
2023/03/16 03:41:39;;;;;;;106.43;73.93;;;;;;;6.85;100.00;100275.31;5057223;28;20049;-81
2023/03/16 03:44:05;;;;;;;113.45;76.53;;;;;;;6.93;100.00;100289.38;5055815;28;20498;-81
2023/03/16 03:46:32;;;;;;;104.03;70.30;;;;;;;6.87;100.00;100291.00;5054139;28;20114;-80
2023/03/16 03:49:02;;;;;;;109.97;70.75;;;;;;;6.83;100.00;100284.44;5051741;28;20486;-80
2023/03/16 03:51:29;;;;;;;110.05;71.95;;;;;;;6.89;100.00;100295.03;5055504;28;20049;-81
2023/03/16 03:53:56;;;;;;;115.95;81.35;;;;;;;6.95;100.00;100288.19;5054628;28;20049;-81
2023/03/16 03:56:24;;;;;;;106.95;78.63;;;;;;;6.93;100.00;100298.13;5061482;28;20115;-81
2023/03/16 03:58:51;;;;;;;116.78;78.85;;;;;;;6.96;100.00;100297.75;5059427;28;20068;-81
2023/03/16 04:01:18;;;;;;;116.38;79.50;;;;;;;7.04;100.00;100297.59;5058294;28;20053;-81
2023/03/16 04:03:45;;;;;;;112.55;76.93;;;;;;;7.03;100.00;100313.63;5047403;28;20076;-81
2023/03/16 04:06:11;;;;;;;115.20;76.97;;;;;;;7.06;100.00;100323.81;5050316;28;20053;-81
2023/03/16 04:08:38;;;;;;;101.07;73.55;;;;;;;7.03;100.00;100311.81;5054063;28;20045;-81
2023/03/16 04:11:05;;;;;;;90.03;69.97;;;;;;;7.02;100.00;100322.56;5052660;28;20048;-81
2023/03/16 04:13:33;;;;;;;92.88;74.40;;;;;;;7.04;100.00;100318.72;5060610;28;20103;-80
2023/03/16 04:16:02;;;;;;;85.05;64.72;;;;;;;7.13;100.00;100303.53;5062618;28;20075;-81
2023/03/16 04:18:37;;;;;;;80.50;62.60;;;;;;;7.14;100.00;100312.28;5054278;28;20069;-81
2023/03/16 04:21:04;;;;;;;83.97;61.67;;;;;;;7.16;100.00;100323.47;5055697;28;20053;-81
2023/03/16 04:23:32;;;;;;;82.18;60.03;;;;;;;6.98;100.00;100330.03;5054814;28;20049;-81
2023/03/16 04:25:59;;;;;;;87.55;69.53;;;;;;;6.91;100.00;100329.19;5057793;28;20079;-80
2023/03/16 04:28:26;;;;;;;93.40;70.22;;;;;;;6.91;100.00;100344.22;5057517;28;20120;-80
2023/03/16 04:30:54;;;;;;;93.38;66.63;;;;;;;6.91;100.00;100346.84;5061141;28;20177;-80
2023/03/16 04:33:21;;;;;;;78.55;58.40;;;;;;;6.85;100.00;100351.88;5055536;28;20080;-81
2023/03/16 04:35:48;;;;;;;89.70;61.75;;;;;;;7.06;100.00;100352.88;5057069;28;20069;-80
2023/03/16 04:38:15;;;;;;;82.25;56.75;;;;;;;7.21;100.00;100355.41;5054688;28;20056;-81
2023/03/16 04:40:41;;;;;;;77.15;55.78;;;;;;;7.16;100.00;100347.25;5054993;28;20068;-81
2023/03/16 04:43:08;;;;;;;70.13;53.70;;;;;;;7.19;100.00;100358.22;5054346;28;20046;-80
2023/03/16 04:45:35;;;;;;;75.25;53.50;;;;;;;7.37;100.00;100354.31;5060367;28;20057;-80
2023/03/16 04:48:03;;;;;;;84.00;59.75;;;;;;;6.75;100.00;100383.06;5017405;28;20545;-81
2023/03/16 04:50:30;;;;;;;80.10;56.40;;;;;;;6.81;100.00;100387.59;5053437;28;20049;-81
2023/03/16 04:52:57;;;;;;;83.10;60.03;;;;;;;6.59;100.00;100392.03;5060339;28;20049;-81
2023/03/16 04:55:23;;;;;;;76.57;57.70;;;;;;;6.65;100.00;100398.38;5068488;28;20044;-81
2023/03/16 04:57:51;;;;;;;96.47;58.63;;;;;;;6.53;100.00;100399.88;5054124;28;20049;-81
2023/03/16 05:00:19;;;;;;;69.93;52.55;;;;;;;6.54;100.00;100404.19;5058940;28;20462;-81
2023/03/16 05:02:47;;;;;;;71.70;53.80;;;;;;;6.43;100.00;100427.38;5060320;28;20045;-81
2023/03/16 05:05:15;;;;;;;76.30;53.35;;;;;;;6.72;100.00;100424.84;5055034;28;20056;-80
2023/03/16 05:07:42;;;;;;;82.97;64.30;;;;;;;6.33;100.00;100424.25;5059648;28;20037;-80
2023/03/16 05:10:10;;;;;;;78.43;65.88;;;;;;;6.53;100.00;100428.91;5063737;28;20076;-81
2023/03/16 05:12:37;;;;;;;69.78;61.15;;;;;;;6.72;100.00;100438.88;5064080;28;20462;-81
2023/03/16 05:15:04;;;;;;;60.40;53.65;;;;;;;6.60;100.00;100441.19;5063667;28;20053;-81
2023/03/16 05:17:32;;;;;;;56.15;49.88;;;;;;;7.18;100.00;100450.88;5062147;28;20052;-81
2023/03/16 05:19:58;;;;;;;49.78;44.65;;;;;;;6.31;100.00;100446.53;5064234;28;20041;-81
2023/03/16 05:22:26;;;;;;;50.85;43.95;;;;;;;6.27;100.00;100453.19;5065962;28;20044;-81
2023/03/16 05:24:53;;;;;;;48.88;43.88;;;;;;;6.53;100.00;100456.09;5066568;28;20037;-81
2023/03/16 05:27:20;;;;;;;51.83;46.08;;;;;;;6.35;100.00;100467.06;5065490;28;20045;-80
2023/03/16 05:29:47;;;;;;;49.90;44.60;;;;;;;6.73;100.00;100468.72;5064294;28;20530;-81
2023/03/16 05:32:15;;;;;;;50.58;45.38;;;;;;;6.37;100.00;100477.44;5057788;28;20123;-81
2023/03/16 05:34:43;;;;;;;55.10;49.72;;;;;;;6.00;100.00;100478.38;5059114;28;20463;-81
2023/03/16 05:37:09;;;;;;;52.80;47.15;;;;;;;6.63;100.00;100475.13;5065650;28;20049;-81
2023/03/16 05:39:37;;;;;;;57.88;52.05;;;;;;;6.36;100.00;100474.00;5066957;28;20111;-80
2023/03/16 05:42:04;;;;;;;48.35;43.25;;;;;;;6.30;100.00;100480.00;5064795;28;20045;-81
2023/03/16 05:44:32;;;;;;;48.50;42.58;;;;;;;5.90;100.00;100481.22;5062096;28;20536;-80
2023/03/16 05:46:59;;;;;;;47.72;42.60;;;;;;;5.82;100.00;100486.59;5066642;28;20050;-81
2023/03/16 05:49:25;;;;;;;49.78;42.78;;;;;;;6.15;100.00;100495.84;5059557;28;20064;-81
2023/03/16 05:51:53;;;;;;;47.05;42.08;;;;;;;6.52;100.00;100491.44;5062847;28;20494;-81
2023/03/16 05:54:20;;;;;;;48.60;41.13;;;;;;;5.77;100.00;100494.22;5062384;28;20045;-81
2023/03/16 05:56:48;;;;;;;46.75;41.63;;;;;;;5.89;100.00;100488.31;5064540;28;20049;-80
2023/03/16 05:59:16;;;;;;;40.92;36.65;;;;;;;6.71;100.00;100492.66;5063783;28;20052;-80
2023/03/16 06:01:43;;;;;;;42.90;36.90;;;;;;;6.08;100.00;100496.72;5060118;28;20049;-80
2023/03/16 06:04:10;;;;;;;44.40;40.03;;;;;;;5.97;100.00;100490.09;5064535;28;20053;-81
2023/03/16 06:06:37;;;;;;;50.08;44.92;;;;;;;5.59;100.00;100498.00;5056475;28;20052;-81
2023/03/16 06:09:04;;;;;;;43.35;38.33;;;;;;;5.66;100.00;100487.59;5062864;28;20073;-81
2023/03/16 06:11:31;;;;;;;46.42;39.10;;;;;;;6.13;100.00;100497.00;5060702;28;20053;-81
2023/03/16 06:13:59;;;;;;;51.58;46.47;;;;;;;5.69;100.00;100500.41;5062918;28;20068;-81
2023/03/16 06:16:26;;;;;;;52.22;47.10;;;;;;;5.80;100.00;100497.31;5064025;28;20060;-80
2023/03/16 06:18:55;;;;;;;47.75;40.88;;;;;;;5.71;100.00;100506.28;5063695;28;20494;-80
2023/03/16 06:21:22;;;;;;;48.28;43.15;;;;;;;5.58;100.00;100506.09;5059307;28;20083;-81
2023/03/16 06:23:48;;;;;;;52.67;47.05;;;;;;;5.62;100.00;100508.19;5057807;28;20045;-81
2023/03/16 06:26:15;;;;;;;52.28;46.88;;;;;;;5.58;100.00;100517.44;5063248;28;20080;-80
2023/03/16 06:28:42;;;;;;;43.10;37.13;;;;;;;6.30;100.00;100514.28;5059704;28;20583;-81
2023/03/16 06:31:10;;;;;;;46.88;42.17;;;;;;;5.61;100.00;100529.47;5051632;28;20053;-80
2023/03/16 06:33:37;;;;;;;50.38;45.28;;;;;;;5.42;100.00;100528.13;5065865;28;20049;-80
2023/03/16 06:36:04;;;;;;;53.75;48.00;;;;;;;5.34;100.00;100536.09;5062559;28;20045;-81
2023/03/16 06:38:32;;;;;;;59.55;53.80;;;;;;;5.32;100.00;100541.50;5051607;28;20049;-80
2023/03/16 06:40:59;;;;;;;62.53;56.40;;;;;;;5.40;100.00;100554.63;5054053;28;20053;-81
2023/03/16 06:43:25;;;;;;;52.90;47.67;;;;;;;5.98;100.00;100565.53;5057656;28;20064;-81
2023/03/16 06:45:52;;;;;;;58.38;52.88;;;;;;;5.44;100.00;100561.19;5055723;28;20044;-81
2023/03/16 06:48:25;;;;;;;50.40;45.00;;;;;;;5.40;100.00;100567.00;5062757;28;20051;-80
2023/03/16 06:50:52;;;;;;;;;;;;;;;5.72;100.00;100572.03;5064051;28;20049;-80
2023/03/16 06:53:20;;;;;;;44.05;39.30;;;;;;;5.31;100.00;100563.59;5056070;28;19925;-80
2023/03/16 06:55:48;;;;;;;43.15;38.50;;;;;;;5.50;100.00;100576.28;5062569;28;20041;-80
2023/03/16 06:58:17;;;;;;;42.15;37.60;;;;;;;5.62;100.00;100584.59;5063984;28;20071;-81
2023/03/16 07:00:48;;;;;;;48.63;40.53;;;;;;;5.10;100.00;100597.63;5059444;28;20050;-80
2023/03/16 07:03:15;;;;;;;48.33;43.53;;;;;;;5.17;100.00;100590.66;5060911;28;20057;-80
2023/03/16 07:05:43;;;;;;;45.38;40.67;;;;;;;4.96;100.00;100600.00;5056605;28;20044;-80
2023/03/16 07:08:10;;;;;;;46.60;41.50;;;;;;;5.00;100.00;100597.84;5055663;28;20052;-80
2023/03/16 07:10:37;;;;;;;53.38;47.72;;;;;;;4.99;100.00;100612.81;5047632;28;20049;-80
2023/03/16 07:13:04;;;;;;;49.45;44.08;;;;;;;5.04;100.00;100615.75;5053019;28;20103;-80
2023/03/16 07:15:31;;;;;;;50.42;43.80;;;;;;;4.96;100.00;100633.38;5053935;28;20183;-80
2023/03/16 07:17:57;;;;;;;49.80;40.38;;;;;;;4.99;100.00;100633.03;5053832;28;20046;-80
2023/03/16 07:20:25;;;;;;;51.67;44.17;;;;;;;4.95;100.00;100643.09;5053492;28;20080;-81
2023/03/16 07:22:53;;;;;;;44.08;39.47;;;;;;;5.07;100.00;100646.19;5054512;28;20049;-81
2023/03/16 07:25:20;;;;;;;39.58;35.17;;;;;;;5.28;100.00;100648.22;5053990;28;20494;-80
2023/03/16 07:27:47;;;;;;;44.95;39.55;;;;;;;4.75;100.00;100653.22;5050140;28;20111;-80
2023/03/16 07:30:14;;;;;;;55.60;44.47;;;;;;;4.83;100.00;100649.72;5049806;28;20395;-80
2023/03/16 07:32:41;;;;;;;55.25;49.97;;;;;;;5.25;100.00;100656.47;5053547;28;20102;-80
2023/03/16 07:35:09;;;;;;;60.47;55.17;;;;;;;4.98;100.00;100648.03;5059371;28;20575;-80
2023/03/16 07:37:36;;;;;;;58.95;53.78;;;;;;;5.18;100.00;100658.97;5052903;28;20068;-80
2023/03/16 07:40:07;;;;;;;54.35;49.35;;;;;;;5.04;100.00;100654.41;5056137;28;20065;-80
2023/03/16 07:42:35;;;;;;;53.95;48.85;;;;;;;5.03;100.00;100653.59;5057004;28;20124;-80
2023/03/16 07:45:02;;;;;;;53.10;48.17;;;;;;;5.05;100.00;100659.53;5054999;28;20045;-80
2023/03/16 07:47:29;;;;;;;55.25;50.00;;;;;;;5.16;100.00;100666.22;5056113;28;20049;-80
2023/03/16 07:49:56;;;;;;;41.95;37.40;;;;;;;5.09;100.00;100667.91;5056278;28;20613;-80
2023/03/16 07:52:23;;;;;;;48.58;40.60;;;;;;;5.14;100.00;100672.63;5055913;28;20049;-80
2023/03/16 07:54:50;;;;;;;44.20;39.45;;;;;;;4.97;100.00;100677.97;5058736;28;20041;-80
2023/03/16 07:57:18;;;;;;;46.20;39.08;;;;;;;4.87;100.00;100676.50;5053911;28;20223;-80
2023/03/16 07:59:45;;;;;;;46.13;40.05;;;;;;;5.11;100.00;100676.41;5054154;28;20489;-80
2023/03/16 08:02:12;;;;;;;44.17;38.60;;;;;;;5.19;100.00;100689.56;5053645;28;20088;-81
2023/03/16 08:04:41;;;;;;;46.28;37.25;;;;;;;5.00;100.00;100684.72;5051645;28;20474;-80
2023/03/16 08:07:08;;;;;;;44.05;39.33;;;;;;;4.85;100.00;100684.59;5054891;28;20104;-80
2023/03/16 08:09:35;;;;;;;44.83;39.92;;;;;;;4.96;100.00;100691.28;5058570;28;20050;-80
2023/03/16 08:12:02;;;;;;;38.95;34.65;;;;;;;4.99;100.00;100696.22;5054052;28;20072;-81
2023/03/16 08:14:32;;;;;;;43.42;37.50;;;;;;;5.02;100.00;100701.13;5061775;28;20097;-81
2023/03/16 08:16:59;;;;;;;52.83;47.53;;;;;;;5.16;100.00;100695.19;5054185;28;20050;-81
2023/03/16 08:19:26;;;;;;;51.08;45.97;;;;;;;5.13;100.00;100698.16;5053820;28;20049;-80
2023/03/16 08:21:53;;;;;;;48.08;43.47;;;;;;;5.03;100.00;100703.63;5056083;28;20049;-80
2023/03/16 08:24:21;;;;;;;45.65;41.05;;;;;;;5.05;100.00;100700.81;5052525;28;20515;-80
2023/03/16 08:26:48;;;;;;;47.95;43.28;;;;;;;5.06;100.00;100705.09;5060103;28;20057;-80
2023/03/16 08:29:14;;;;;;;65.32;59.63;;;;;;;5.09;100.00;100711.84;5053172;28;20076;-80
2023/03/16 08:31:42;;;;;;;59.83;54.40;;;;;;;5.01;100.00;100713.50;5049843;28;20053;-80
2023/03/16 08:34:09;;;;;;;59.10;53.85;;;;;;;4.95;100.00;100719.44;5052820;28;20053;-80
2023/03/16 08:36:36;;;;;;;56.78;51.25;;;;;;;5.05;100.00;100722.72;5053080;28;20072;-80
2023/03/16 08:39:04;;;;;;;53.15;47.30;;;;;;;5.08;100.00;100718.88;5053691;28;20076;-80
2023/03/16 08:41:31;;;;;;;55.13;50.00;;;;;;;5.37;100.00;100720.94;5056191;28;20080;-80
2023/03/16 08:43:58;;;;;;;56.08;50.88;;;;;;;5.32;100.00;100728.50;5052156;28;20053;-81
2023/03/16 08:46:25;;;;;;;63.30;57.88;;;;;;;5.21;100.00;100727.09;5064061;28;20049;-80
2023/03/16 08:48:55;;;;;;;47.25;42.72;;;;;;;5.26;100.00;100730.03;5053530;28;20042;-80
2023/03/16 08:51:22;;;;;;;50.35;45.10;;;;;;;5.39;100.00;100726.84;5057378;28;20073;-81
2023/03/16 08:53:48;;;;;;;43.92;39.28;;;;;;;5.36;100.00;100721.94;5055902;28;20049;-80
2023/03/16 08:56:15;;;;;;;41.92;37.63;;;;;;;5.85;100.00;100721.66;5047918;28;20046;-81
2023/03/16 08:58:44;;;;;;;39.03;34.92;;;;;;;5.33;100.00;100727.53;5056919;28;20147;-80
2023/03/16 09:01:12;;;;;;;37.97;33.88;;;;;;;5.52;100.00;100728.94;5056674;28;20065;-81
2023/03/16 09:03:40;;;;;;;40.83;36.50;;;;;;;5.15;100.00;100732.22;5053185;28;20084;-81
2023/03/16 09:06:12;;;;;;;39.78;35.53;;;;;;;5.16;100.00;100734.66;5055855;28;20053;-80
2023/03/16 09:08:39;;;;;;;37.80;33.58;;;;;;;5.55;100.00;100739.13;5055958;28;20048;-80
2023/03/16 09:11:08;;;;;;;37.20;33.17;;;;;;;5.42;100.00;100742.31;5055757;28;20049;-80
2023/03/16 09:13:37;;;;;;;37.15;33.25;;;;;;;5.26;100.00;100740.56;5054109;28;20099;-80
2023/03/16 09:16:04;;;;;;;40.13;35.83;;;;;;;5.28;100.00;100735.94;5052986;28;20069;-80
2023/03/16 09:18:32;;;;;;;40.92;36.63;;;;;;;5.66;100.00;100744.00;5053481;28;20114;-80
2023/03/16 09:20:59;;;;;;;46.05;41.58;;;;;;;5.58;100.00;100746.69;5053533;28;20079;-80
2023/03/16 09:23:28;;;;;;;43.20;38.47;;;;;;;5.28;100.00;100743.84;5053877;28;20046;-80
2023/03/16 09:25:58;;;;;;;38.55;34.25;;;;;;;5.33;100.00;100751.25;5051033;28;20047;-80
2023/03/16 09:28:26;;;;;;;42.63;38.05;;;;;;;5.24;100.00;100760.97;5055129;28;20103;-80
2023/03/16 09:30:53;;;;;;;41.95;37.67;;;;;;;5.18;100.00;100759.03;5054151;28;20136;-80
2023/03/16 09:33:20;;;;;;;42.45;38.08;;;;;;;5.15;100.00;100762.00;5053002;28;20053;-80
2023/03/16 09:35:48;;;;;;;47.97;41.63;;;;;;;5.12;100.00;100767.59;5054815;28;20059;-80
2023/03/16 09:38:15;;;;;;;43.90;39.47;;;;;;;5.17;100.00;100772.34;5047350;28;20042;-80
2023/03/16 09:40:43;;;;;;;48.78;41.55;;;;;;;5.27;100.00;100775.63;5055728;28;20057;-80
2023/03/16 09:43:32;;;;;;;41.15;36.75;;;;;;;5.83;100.00;100773.72;5052934;28;20050;-80
2023/03/16 09:46:05;;;;;;;40.58;36.40;;;;;;;5.36;100.00;100777.25;5055813;28;20080;-80
2023/03/16 09:48:35;;;;;;;40.75;36.45;;;;;;;5.45;100.00;100785.94;5058151;28;20112;-80
2023/03/16 09:51:06;;;;;;;40.10;35.72;;;;;;;5.47;100.00;100790.03;5057506;28;20117;-81
2023/03/16 09:53:35;;;;;;;39.33;35.33;;;;;;;5.48;100.00;100793.50;5055553;28;20099;-81
2023/03/16 09:56:07;;;;;;;39.70;35.72;;;;;;;5.27;100.00;100794.88;5056537;28;20132;-80
2023/03/16 09:58:35;;;;;;;39.72;35.42;;;;;;;5.15;100.00;100801.50;5052342;28;20524;-80
2023/03/16 10:01:12;;;;;;;44.88;38.58;;;;;;;5.31;100.00;100802.44;5055619;28;20051;-80
2023/03/16 10:03:59;;;;;;;43.38;37.45;;;;;;;5.55;100.00;100799.72;5057835;28;20079;-80
2023/03/16 10:06:27;;;;;;;46.15;41.50;;;;;;;5.60;100.00;100809.72;5051679;28;20048;-80
2023/03/16 10:09:04;;;;;;;44.80;40.20;;;;;;;5.60;100.00;100804.47;5056137;28;20053;-81
2023/03/16 10:11:37;;;;;;;43.63;39.22;;;;;;;5.52;100.00;100805.34;5056232;28;20049;-80
2023/03/16 10:14:16;;;;;;;40.25;36.15;;;;;;;5.43;100.00;100811.63;5059026;28;20045;-80
2023/03/16 10:16:47;;;;;;;42.53;38.45;;;;;;;5.48;100.00;100812.75;5058960;28;20061;-80
2023/03/16 10:19:20;;;;;;;43.30;38.90;;;;;;;5.52;100.00;100821.13;5057974;28;20044;-80
2023/03/16 10:21:49;;;;;;;39.70;35.42;;;;;;;5.69;100.00;100820.09;5057222;28;20446;-80
2023/03/16 10:24:27;;;;;;;39.78;35.55;;;;;;;5.65;100.00;100818.78;5057699;28;20048;-80
2023/03/16 10:26:59;;;;;;;39.63;35.53;;;;;;;5.74;100.00;100815.09;5057048;28;20545;-80
2023/03/16 10:29:28;;;;;;;44.67;36.13;;;;;;;5.79;100.00;100825.16;5056919;28;20079;-80
2023/03/16 10:32:00;;;;;;;37.95;32.92;;;;;;;5.95;100.00;100819.81;5057517;28;20049;-80
2023/03/16 10:34:26;;;;;;;36.88;32.70;;;;;;;5.66;100.00;100814.34;5053693;28;20514;-80
2023/03/16 10:36:55;;;;;;;41.85;37.42;;;;;;;5.81;100.00;100820.53;5055424;28;20049;-80
2023/03/16 10:39:21;;;;;;;41.42;37.08;;;;;;;5.73;100.00;100829.28;5055820;28;20118;-80
2023/03/16 10:41:57;;;;;;;41.20;37.05;;;;;;;5.93;100.00;100824.47;5058285;28;20057;-80
2023/03/16 10:44:25;;;;;;;41.30;37.17;;;;;;;6.00;100.00;100829.03;5058684;28;20118;-80
2023/03/16 10:47:00;;;;;;;37.15;33.25;;;;;;;6.02;100.00;100832.31;5058691;28;20106;-80
2023/03/16 10:49:28;;;;;;;37.28;33.58;;;;;;;5.97;100.00;100828.38;5059016;28;20118;-80
2023/03/16 10:51:58;;;;;;;40.88;35.72;;;;;;;5.90;100.00;100824.78;5055489;28;20052;-80
2023/03/16 10:54:30;;;;;;;41.75;37.45;;;;;;;5.98;100.00;100823.94;5055981;28;20068;-80
2023/03/16 10:56:59;;;;;;;42.15;38.08;;;;;;;5.96;100.00;100818.00;5055093;28;20040;-80
2023/03/16 10:59:33;;;;;;;38.80;34.95;;;;;;;5.96;100.00;100821.47;5062368;28;20122;-81
2023/03/16 11:02:02;;;;;;;53.75;48.95;;;;;;;6.03;100.00;100821.59;5065125;28;20045;-80
2023/03/16 11:04:31;;;;;;;43.95;39.40;;;;;;;6.05;100.00;100821.41;5062761;28;20081;-80
2023/03/16 11:06:59;;;;;;;45.70;40.90;;;;;;;6.28;100.00;100816.19;5050597;28;20053;-81
2023/03/16 11:09:32;;;;;;;43.85;39.55;;;;;;;6.24;100.00;100820.97;5066883;28;20049;-80
2023/03/16 11:12:12;;;;;;;39.78;35.58;;;;;;;6.33;100.00;100817.28;5060830;28;20506;-80